createdAt,value
2022-11-14T00:00:46.871Z,11.40
2022-11-14T00:02:07.234Z,15.10
2022-11-14T00:03:27.824Z,12.50
2022-11-14T00:04:48.152Z,10.90
2022-11-14T00:06:08.472Z,10.80
2022-11-14T00:07:33.447Z,10.60
2022-11-14T00:08:53.937Z,10.60
2022-11-14T00:11:35.077Z,10.50
2022-11-14T00:12:55.196Z,14.50
2022-11-14T00:14:15.695Z,10.80
2022-11-14T00:15:35.921Z,10.90
2022-11-14T00:18:17.677Z,11.20
2022-11-14T00:19:38.280Z,11.80
2022-11-14T00:20:58.227Z,11.40
2022-11-14T00:22:18.244Z,12.20
2022-11-14T00:23:38.443Z,10.50
2022-11-14T00:24:59.396Z,11.90
2022-11-14T00:26:19.675Z,14.90
2022-11-14T00:29:00.729Z,10.60
2022-11-14T00:31:42.038Z,11.70
2022-11-14T00:33:02.206Z,11.40
2022-11-14T00:34:22.502Z,10.20
2022-11-14T00:35:50.269Z,10.20
2022-11-14T00:37:10.821Z,8.90
2022-11-14T00:38:31.319Z,12.50
2022-11-14T00:39:52.297Z,10.90
2022-11-14T00:41:12.856Z,11.00
2022-11-14T00:42:34.040Z,10.00
2022-11-14T00:43:54.418Z,9.80
2022-11-14T00:46:35.081Z,12.90
2022-11-14T00:47:55.666Z,11.30
2022-11-14T00:49:16.264Z,10.40
2022-11-14T00:50:37.451Z,10.90
2022-11-14T00:51:57.987Z,12.70
2022-11-14T00:53:18.427Z,12.20
2022-11-14T00:54:38.456Z,12.30
2022-11-14T00:57:19.237Z,13.40
2022-11-14T00:58:40.472Z,13.30
2022-11-14T01:00:01.142Z,11.70
2022-11-14T01:01:21.677Z,12.20
2022-11-14T01:04:02.058Z,11.00
2022-11-14T01:05:24.102Z,13.90
2022-11-14T01:06:44.440Z,12.00
2022-11-14T01:08:04.517Z,14.30
2022-11-14T01:09:24.856Z,13.00
2022-11-14T01:10:49.094Z,11.60
2022-11-14T01:12:09.310Z,10.20
2022-11-14T01:13:32.125Z,10.30
2022-11-14T01:14:52.599Z,10.50
2022-11-14T01:16:13.025Z,11.70
2022-11-14T01:17:33.486Z,11.00
2022-11-14T01:18:54.132Z,9.30
2022-11-14T01:20:15.818Z,11.10
2022-11-14T01:21:36.155Z,12.00
2022-11-14T01:22:56.482Z,7.90
2022-11-14T01:24:16.658Z,8.10
2022-11-14T01:26:58.116Z,8.70
2022-11-14T01:28:19.273Z,10.00
2022-11-14T01:29:39.960Z,8.80
2022-11-14T01:31:19.639Z,8.50
2022-11-14T01:32:40.287Z,9.60
2022-11-14T01:34:00.359Z,8.60
2022-11-14T01:35:20.626Z,8.80
2022-11-14T01:36:41.566Z,8.20
2022-11-14T01:38:03.185Z,8.00
2022-11-14T01:39:23.326Z,9.10
2022-11-14T01:40:44.723Z,9.40
2022-11-14T01:42:05.667Z,8.40
2022-11-14T01:43:32.807Z,9.80
2022-11-14T01:44:53.284Z,9.60
2022-11-14T01:46:33.941Z,8.40
2022-11-14T01:49:19.942Z,8.90
2022-11-14T01:50:40.037Z,8.00
2022-11-14T01:52:13.104Z,6.70
2022-11-14T01:53:33.774Z,7.50
2022-11-14T01:56:19.584Z,7.90
2022-11-14T01:57:45.735Z,7.90
2022-11-14T01:59:19.643Z,9.10
2022-11-14T02:00:41.197Z,9.90
2022-11-14T02:02:08.822Z,8.10
2022-11-14T02:03:29.151Z,7.10
2022-11-14T02:05:12.570Z,9.00
2022-11-14T02:06:34.170Z,8.30
2022-11-14T02:07:54.839Z,7.30
2022-11-14T02:09:15.618Z,8.60
2022-11-14T02:11:58.216Z,6.30
2022-11-14T02:13:18.748Z,7.40
2022-11-14T02:16:00.959Z,6.80
2022-11-14T02:17:29.598Z,5.60
2022-11-14T02:18:51.371Z,7.70
2022-11-14T02:20:12.287Z,6.80
2022-11-14T02:21:32.907Z,6.00
2022-11-14T02:22:54.464Z,5.60
2022-11-14T02:24:14.803Z,6.20
2022-11-14T02:25:34.927Z,5.20
2022-11-14T02:26:55.384Z,7.90
2022-11-14T02:28:15.760Z,6.80
2022-11-14T02:29:36.842Z,6.40
2022-11-14T02:31:27.775Z,9.30
2022-11-14T02:35:49.791Z,5.90
2022-11-14T02:38:30.977Z,7.20
2022-11-14T02:39:52.194Z,6.80
2022-11-14T02:41:12.695Z,6.80
2022-11-14T02:42:33.008Z,5.60
2022-11-14T02:43:53.805Z,5.50
2022-11-14T02:45:14.140Z,6.20
2022-11-14T02:46:34.532Z,7.60
2022-11-14T02:49:15.218Z,5.00
2022-11-14T02:51:55.906Z,8.80
2022-11-14T02:53:16.410Z,7.20
2022-11-14T02:54:36.583Z,5.70
2022-11-14T02:57:17.095Z,5.50
2022-11-14T02:58:37.997Z,8.70
2022-11-14T02:59:58.421Z,6.90
2022-11-14T03:01:21.415Z,6.50
2022-11-14T03:02:42.225Z,6.40
2022-11-14T03:04:02.791Z,5.90
2022-11-14T03:05:22.737Z,6.80
2022-11-14T03:06:43.049Z,8.80
2022-11-14T03:09:23.879Z,6.00
2022-11-14T03:10:44.201Z,6.50
2022-11-14T03:12:04.895Z,5.50
2022-11-14T03:13:29.592Z,5.60
2022-11-14T03:14:50.102Z,6.10
2022-11-14T03:17:33.815Z,5.30
2022-11-14T03:18:54.500Z,7.20
2022-11-14T03:21:35.284Z,6.00
2022-11-14T03:22:55.495Z,6.70
2022-11-14T03:24:15.857Z,5.30
2022-11-14T03:25:36.627Z,6.40
2022-11-14T03:26:56.958Z,5.80
2022-11-14T03:28:17.618Z,6.90
2022-11-14T03:29:38.163Z,7.60
2022-11-14T03:30:58.547Z,6.10
2022-11-14T03:32:18.976Z,6.80
2022-11-14T03:36:20.948Z,6.40
2022-11-14T03:37:41.231Z,5.80
2022-11-14T03:39:01.433Z,6.20
2022-11-14T03:40:22.331Z,6.80
2022-11-14T03:41:42.905Z,7.00
2022-11-14T03:43:03.127Z,6.20
2022-11-14T03:44:23.539Z,7.70
